createdAt,value
2019-02-11T00:00:47.109Z,90.04
2019-02-11T00:01:47.129Z,90.45
2019-02-11T00:02:47.088Z,89.73
2019-02-11T00:03:47.078Z,89.62
2019-02-11T00:04:47.066Z,90.14
2019-02-11T00:05:47.069Z,90.25
2019-02-11T00:06:48.737Z,90.97
2019-02-11T00:07:47.039Z,90.35
2019-02-11T00:08:47.024Z,89.83
2019-02-11T00:09:47.010Z,89.73
2019-02-11T00:10:47.002Z,89.62
2019-02-11T00:11:47.019Z,90.25
2019-02-11T00:12:46.987Z,90.97
2019-02-11T00:13:46.970Z,90.35
2019-02-11T00:14:46.956Z,90.04
2019-02-11T00:15:46.945Z,90.04
2019-02-11T00:16:47.033Z,89.83
2019-02-11T00:17:46.964Z,89.52
2019-02-11T00:18:46.925Z,90.25
2019-02-11T00:19:46.954Z,90.04
2019-02-11T00:20:46.913Z,90.14
2019-02-11T00:21:46.896Z,89.83
2019-02-11T00:22:46.901Z,90.04
2019-02-11T00:23:46.883Z,90.14
2019-02-11T00:24:46.856Z,90.25
2019-02-11T00:25:46.849Z,89.94
2019-02-11T00:26:46.842Z,90.66
2019-02-11T00:27:46.868Z,90.97
2019-02-11T00:28:46.831Z,90.45
2019-02-11T00:29:46.874Z,90.56
2019-02-11T00:30:46.848Z,90.14
2019-02-11T00:31:46.801Z,90.04
2019-02-11T00:32:46.883Z,89.94
2019-02-11T00:33:46.773Z,90.45
2019-02-11T00:34:46.768Z,89.62
2019-02-11T00:35:46.817Z,90.04
2019-02-11T00:36:46.717Z,90.25
2019-02-11T00:37:47.699Z,90.66
2019-02-11T00:39:04.269Z,90.25
2019-02-11T00:39:46.685Z,90.35
2019-02-11T00:40:47.426Z,89.94
2019-02-11T00:41:46.851Z,90.14
2019-02-11T00:42:46.700Z,89.73
2019-02-11T00:43:46.737Z,89.52
2019-02-11T00:44:46.633Z,89.94
2019-02-11T00:45:46.703Z,90.45
2019-02-11T00:46:46.674Z,89.83
2019-02-11T00:47:46.601Z,89.73
2019-02-11T00:48:46.608Z,90.35
2019-02-11T00:49:46.573Z,89.52
2019-02-11T00:50:46.574Z,90.04
2019-02-11T00:51:46.557Z,90.08
2019-02-11T00:52:46.662Z,89.94
2019-02-11T00:53:47.774Z,90.04
2019-02-11T00:54:46.532Z,90.08
2019-02-11T00:55:47.396Z,89.98
2019-02-11T00:56:46.503Z,89.87
2019-02-11T01:04:49.443Z,90.19
2019-02-11T01:05:15.871Z,89.56
2019-02-11T01:06:15.825Z,89.67
2019-02-11T01:07:16.122Z,89.56
2019-02-11T01:08:15.821Z,90.19
2019-02-11T01:09:15.786Z,89.67
2019-02-11T01:10:15.775Z,90.91
2019-02-11T01:11:15.765Z,90.60
2019-02-11T01:12:15.750Z,90.29
2019-02-11T01:13:15.769Z,91.22
2019-02-11T01:14:15.740Z,90.29
2019-02-11T01:15:15.742Z,90.08
2019-02-11T01:16:15.726Z,90.29
2019-02-11T01:17:15.712Z,90.19
2019-02-11T01:18:15.720Z,90.81
2019-02-11T01:19:15.685Z,90.64
2019-02-11T01:20:15.677Z,90.19
2019-02-11T01:21:15.663Z,89.92
2019-02-11T01:22:15.659Z,89.77
2019-02-11T01:23:15.648Z,89.87
2019-02-11T01:24:15.659Z,90.29
2019-02-11T01:25:15.621Z,89.98
2019-02-11T01:26:15.614Z,89.56
2019-02-11T01:27:15.594Z,90.70
2019-02-11T01:28:15.584Z,90.60
2019-02-11T01:29:15.595Z,90.50
2019-02-11T01:30:15.558Z,90.08
2019-02-11T01:31:15.557Z,89.87
2019-02-11T01:32:15.543Z,90.29
2019-02-11T01:33:15.574Z,90.60
2019-02-11T01:34:15.570Z,89.77
2019-02-11T01:35:15.552Z,90.02
2019-02-11T01:36:15.513Z,90.29
2019-02-11T01:37:15.573Z,89.04
2019-02-11T01:38:15.473Z,89.04
2019-02-11T01:39:15.482Z,89.61
2019-02-11T01:40:15.457Z,90.39
2019-02-11T01:41:15.449Z,89.71
2019-02-11T01:42:15.431Z,89.71
2019-02-11T01:43:15.427Z,89.61
2019-02-11T01:44:15.445Z,90.12
2019-02-11T01:45:15.403Z,90.54
2019-02-11T01:46:15.385Z,89.92
2019-02-11T01:47:15.379Z,89.50
2019-02-11T01:48:15.366Z,90.23
2019-02-11T01:49:15.347Z,90.54
2019-02-11T01:50:15.602Z,90.33
2019-02-11T01:51:15.378Z,90.02
2019-02-11T01:52:15.323Z,90.12
2019-02-11T01:53:15.311Z,89.56
2019-02-11T01:54:15.303Z,90.54
2019-02-11T01:55:15.328Z,90.02
2019-02-11T01:56:15.285Z,90.12
2019-02-11T01:57:15.261Z,91.37
2019-02-11T01:58:15.255Z,90.75
2019-02-11T01:59:15.249Z,90.64
2019-02-11T02:00:15.262Z,90.75
2019-02-11T02:01:15.221Z,90.33
2019-02-11T02:02:15.214Z,90.75
2019-02-11T02:03:15.201Z,90.85
2019-02-11T02:04:15.200Z,90.54
2019-02-11T02:48:32.938Z,90.44
2019-02-11T02:49:05.914Z,90.44
2019-02-11T02:50:05.901Z,90.33
2019-02-11T02:51:05.919Z,90.23
2019-02-11T02:52:05.877Z,90.33
2019-02-11T02:53:16.123Z,90.33
2019-02-11T02:54:06.596Z,90.12
2019-02-11T02:55:05.844Z,90.02
2019-02-11T02:56:05.901Z,90.12
2019-02-11T02:57:05.827Z,89.92
2019-02-11T02:58:05.821Z,90.02
2019-02-11T02:59:06.567Z,90.44
2019-02-11T03:00:05.851Z,90.02
2019-02-11T03:01:05.781Z,89.92
2019-02-11T03:02:05.809Z,89.61
2019-02-11T03:03:05.898Z,90.02
2019-02-11T03:04:05.772Z,90.33
2019-02-11T03:05:05.731Z,89.92
2019-02-11T03:06:05.725Z,88.98
2019-02-11T03:07:05.719Z,90.02
2019-02-11T03:08:05.734Z,88.94
2019-02-11T03:09:05.785Z,89.40
2019-02-11T03:10:05.693Z,88.94
2019-02-11T03:11:05.665Z,89.40
2019-02-11T03:12:05.961Z,89.50
2019-02-11T03:13:05.666Z,89.15
2019-02-11T03:14:06.468Z,89.36
2019-02-11T03:15:05.621Z,88.32
2019-02-11T03:16:05.612Z,88.67
2019-02-11T03:17:05.597Z,89.04
2019-02-11T03:18:06.575Z,89.36
2019-02-11T03:19:08.614Z,89.46
2019-02-11T04:42:16.751Z,88.59
2019-02-11T04:42:49.768Z,89.31
2019-02-11T04:43:49.734Z,88.48
2019-02-11T04:44:49.699Z,88.59
2019-02-11T04:45:49.696Z,88.48
2019-02-11T04:46:49.686Z,88.48
2019-02-11T04:47:49.667Z,88.90
2019-02-11T04:48:49.682Z,88.59
2019-02-11T04:49:49.649Z,88.59
2019-02-11T04:50:49.640Z,88.69
2019-02-11T04:51:49.631Z,88.79
2019-02-11T04:52:49.618Z,88.90
2019-02-11T04:53:49.628Z,88.18
2019-02-11T04:54:49.595Z,88.59
2019-02-11T04:55:49.585Z,88.07
2019-02-11T04:56:49.569Z,88.07
2019-02-11T04:57:49.558Z,88.39
2019-02-11T04:58:49.548Z,87.87
2019-02-11T04:59:49.565Z,88.65
2019-02-11T05:09:30.728Z,87.97
2019-02-11T05:10:03.712Z,88.03
2019-02-11T05:11:03.690Z,88.28
2019-02-11T05:12:03.677Z,87.93
2019-02-11T05:13:03.665Z,87.51
2019-02-11T05:14:03.646Z,87.55
2019-02-11T05:15:03.662Z,87.51
2019-02-11T05:16:03.636Z,88.28
2019-02-11T05:17:03.611Z,87.76
2019-02-11T05:18:03.601Z,87.55
2019-02-11T05:19:03.594Z,87.87
2019-02-11T05:20:03.621Z,87.24
2019-02-11T05:21:03.570Z,86.58
2019-02-11T05:22:03.560Z,86.37
2019-02-11T05:23:03.546Z,87.76
2019-02-11T05:24:03.552Z,87.24
2019-02-11T05:25:03.547Z,87.62
2019-02-11T05:26:03.537Z,87.51
2019-02-11T05:27:03.512Z,86.58
2019-02-11T05:28:03.491Z,86.62
2019-02-11T05:29:03.484Z,86.83
2019-02-11T05:30:03.478Z,86.72
2019-02-11T05:31:03.544Z,86.83
2019-02-11T05:32:03.446Z,87.62
2019-02-11T05:33:03.486Z,88.24
2019-02-11T05:34:03.424Z,87.76
2019-02-11T05:35:03.427Z,87.41
2019-02-11T05:36:03.436Z,87.51
2019-02-11T05:37:03.403Z,87.45
2019-02-11T05:38:03.379Z,86.62
2019-02-11T05:39:03.368Z,87.62
2019-02-11T05:40:03.357Z,87.14
2019-02-11T05:41:03.373Z,87.35
2019-02-11T05:42:03.335Z,87.14
2019-02-11T05:43:03.329Z,87.30
2019-02-11T05:44:05.793Z,87.41
2019-02-11T05:45:03.304Z,86.52
2019-02-11T05:46:03.327Z,86.27
2019-02-11T05:47:03.280Z,87.20
2019-02-11T05:48:03.272Z,86.72
2019-02-11T05:49:03.265Z,86.58
2019-02-11T05:50:03.252Z,87.45
2019-02-11T05:51:03.239Z,87.41
2019-02-11T05:52:03.251Z,87.55
2019-02-11T05:53:03.215Z,86.31
2019-02-11T05:54:03.206Z,86.62
2019-02-11T05:55:03.201Z,86.52
2019-02-11T05:56:03.197Z,86.58
2019-02-11T05:57:03.211Z,86.62
2019-02-11T05:58:03.171Z,86.41
2019-02-11T05:59:03.166Z,86.83
2019-02-11T06:00:03.163Z,86.52
2019-02-11T06:01:03.157Z,86.58
2019-02-11T06:02:03.164Z,86.83
2019-02-11T06:03:03.121Z,86.62
2019-02-11T06:04:03.102Z,86.47
2019-02-11T06:05:03.158Z,86.47
2019-02-11T06:06:03.089Z,86.58
2019-02-11T06:07:03.070Z,86.79
2019-02-11T06:08:03.081Z,86.79
2019-02-11T06:09:03.042Z,86.93
2019-02-11T06:10:03.034Z,86.83
2019-02-11T06:11:03.019Z,86.93
2019-02-11T06:13:30.055Z,86.47
2019-02-11T06:13:58.421Z,86.83
2019-02-11T06:14:30.464Z,86.83
2019-02-11T06:15:30.378Z,86.83
2019-02-11T06:16:30.414Z,86.52
2019-02-11T06:17:32.007Z,86.83
2019-02-11T06:18:30.364Z,86.72
2019-02-11T06:19:32.378Z,86.93
2019-02-11T06:20:31.014Z,86.52
2019-02-11T06:21:30.296Z,86.52
2019-02-11T06:22:32.979Z,86.41
2019-02-11T06:23:33.985Z,86.52
2019-02-11T06:48:39.625Z,86.55
2019-02-11T06:49:51.711Z,86.87
2019-02-11T06:50:39.651Z,86.83
2019-02-11T06:51:40.590Z,86.93
2019-02-11T06:52:39.600Z,86.72
2019-02-11T06:53:39.553Z,86.83
2019-02-11T06:54:39.542Z,86.52
2019-02-11T06:55:40.230Z,86.87
2019-02-11T06:56:39.521Z,86.83
2019-02-11T06:57:39.509Z,86.83
2019-02-11T06:58:39.525Z,86.62
2019-02-11T06:59:39.507Z,86.87
2019-02-11T07:08:23.928Z,86.41
2019-02-11T07:19:44.376Z,86.10
2019-02-11T07:20:38.293Z,85.58
2019-02-11T07:21:38.314Z,85.69
2019-02-11T07:48:50.072Z,85.06
2019-02-11T07:49:43.911Z,85.79
2019-02-11T08:01:15.496Z,85.27
2019-02-11T08:01:48.451Z,85.03
2019-02-11T08:02:48.433Z,85.44
2019-02-11T08:03:48.453Z,85.03
2019-02-11T08:04:48.452Z,85.03
2019-02-11T08:05:48.401Z,85.65
2019-02-11T08:06:48.393Z,85.24
2019-02-11T08:58:39.934Z,82.88
2019-02-11T08:59:12.973Z,82.88
2019-02-11T09:00:12.886Z,82.88
2019-02-11T09:01:12.873Z,82.32
2019-02-11T09:02:12.959Z,82.43
2019-02-11T09:03:12.854Z,81.91
2019-02-11T09:04:18.825Z,82.12
2019-02-11T09:05:13.829Z,81.91
2019-02-11T09:06:12.824Z,82.12
2019-02-11T09:47:13.586Z,78.25
2019-02-11T09:48:13.564Z,78.88
2019-02-11T09:49:13.542Z,78.25
2019-02-11T09:50:13.553Z,78.46
2019-02-11T09:51:13.523Z,78.77
2019-02-11T09:52:13.516Z,78.36
2019-02-11T09:53:13.604Z,78.11
2019-02-11T09:54:13.501Z,78.56
2019-02-11T09:55:13.521Z,78.32
2019-02-11T09:56:13.479Z,78.49
2019-02-11T09:57:13.469Z,77.15
2019-02-11T09:58:13.466Z,77.46
2019-02-11T09:59:13.447Z,76.32
2019-02-11T10:00:13.430Z,75.91
2019-02-11T10:01:13.802Z,76.32
2019-02-11T10:02:13.446Z,76.50
2019-02-11T10:03:20.189Z,75.19
2019-02-11T10:11:39.680Z,76.73
2019-02-11T10:12:39.646Z,76.32
2019-02-11T10:13:39.634Z,76.53
2019-02-11T10:14:39.636Z,76.43
2019-02-11T10:23:52.765Z,77.04
2019-02-11T10:24:24.452Z,77.04
2019-02-11T10:25:24.436Z,76.53
2019-02-11T10:26:24.431Z,76.64
2019-02-11T10:27:24.417Z,76.64
2019-02-11T10:28:24.404Z,75.98
2019-02-11T10:29:24.424Z,75.46
2019-02-11T10:30:24.389Z,75.46
2019-02-11T10:31:24.377Z,74.71
2019-02-11T10:32:24.410Z,74.22
2019-02-11T10:33:24.352Z,74.22
2019-02-11T10:34:24.341Z,74.53
2019-02-11T10:48:16.639Z,76.29
2019-02-11T10:49:16.584Z,75.26
2019-02-11T10:50:16.835Z,74.29
2019-02-11T10:51:16.619Z,74.71
2019-02-11T10:52:16.576Z,75.26
2019-02-11T10:53:16.621Z,74.71
2019-02-11T10:54:16.543Z,74.91
2019-02-11T10:55:16.509Z,74.91
2019-02-11T10:56:16.498Z,74.81
2019-02-11T10:57:16.491Z,74.67
2019-02-11T10:58:16.475Z,74.05
2019-02-11T10:59:16.489Z,73.95
2019-02-11T11:00:16.464Z,73.95
2019-02-11T11:01:16.447Z,73.64
2019-02-11T11:02:16.433Z,73.33
2019-02-11T11:03:16.424Z,73.71
2019-02-11T11:04:16.410Z,73.71
2019-02-11T11:09:06.703Z,72.88
2019-02-11T11:09:39.659Z,72.88
2019-02-11T11:10:39.672Z,72.67
2019-02-11T11:11:39.641Z,72.75
2019-02-11T11:12:39.631Z,72.67
2019-02-11T11:13:39.619Z,72.58
2019-02-11T11:14:39.608Z,72.58
2019-02-11T11:15:39.616Z,72.23
2019-02-11T11:16:57.015Z,71.82
2019-02-11T11:17:50.041Z,72.13
2019-02-11T11:24:59.968Z,72.23
2019-02-11T11:25:32.969Z,72.23
2019-02-11T11:26:32.949Z,71.72
2019-02-11T11:27:32.920Z,71.92
2019-02-11T11:28:32.903Z,72.75
2019-02-11T11:29:32.898Z,72.23
2019-02-11T11:30:32.885Z,71.92
2019-02-11T11:31:32.907Z,71.41
2019-02-11T11:32:32.862Z,71.89
2019-02-11T11:33:32.850Z,71.78
2019-02-11T11:34:32.845Z,71.78
2019-02-11T11:35:32.827Z,71.69
2019-02-11T11:36:32.819Z,70.76
2019-02-11T11:37:33.225Z,71.17
2019-02-11T11:38:32.827Z,71.48
2019-02-11T11:39:32.783Z,70.86
2019-02-11T11:40:32.774Z,71.17
2019-02-11T11:41:32.766Z,70.65
2019-02-11T11:42:32.772Z,70.96
2019-02-11T11:46:45.694Z,72.41
2019-02-11T11:47:36.170Z,71.58
2019-02-11T11:57:15.640Z,71.89
2019-02-11T11:57:48.615Z,71.20
2019-02-11T11:58:48.575Z,71.30
2019-02-11T11:59:48.568Z,71.51
2019-02-11T12:00:48.560Z,71.30
2019-02-11T12:01:48.536Z,72.03
2019-02-11T12:03:00.440Z,71.30
2019-02-11T12:03:49.562Z,71.10
2019-02-11T12:04:48.505Z,71.10
2019-02-11T12:05:48.497Z,71.61
2019-02-11T12:06:48.488Z,70.96
2019-02-11T12:07:48.476Z,70.48
2019-02-11T12:08:48.487Z,70.34
2019-02-11T12:09:48.450Z,70.14
2019-02-11T12:10:48.441Z,70.96
2019-02-11T12:11:48.438Z,70.62
2019-02-11T12:12:48.424Z,70.21
2019-02-11T12:13:48.437Z,69.28
2019-02-11T12:14:48.396Z,69.79
2019-02-11T12:15:48.387Z,70.00
2019-02-11T12:16:56.795Z,70.10
2019-02-11T12:17:49.359Z,70.72
2019-02-11T12:18:48.351Z,70.52
2019-02-11T12:19:49.291Z,70.21
2019-02-11T12:20:48.329Z,69.83
2019-02-11T12:21:48.319Z,70.14
2019-02-11T12:22:48.327Z,70.65
2019-02-11T12:23:48.299Z,69.96
2019-02-11T12:24:48.301Z,69.21
2019-02-11T12:25:48.272Z,69.76
2019-02-11T12:26:48.265Z,70.55
2019-02-11T12:27:48.265Z,70.58
2019-02-11T12:28:48.244Z,69.42
2019-02-11T12:29:48.256Z,69.62
2019-02-11T12:30:48.221Z,69.31
2019-02-11T12:31:48.279Z,69.21
2019-02-11T12:32:48.203Z,68.90
2019-02-11T12:33:48.188Z,68.90
2019-02-11T12:34:48.201Z,69.62
2019-02-11T12:38:07.617Z,69.65
2019-02-11T12:39:07.569Z,69.65
2019-02-11T12:40:16.158Z,69.55
2019-02-11T12:41:07.572Z,69.55
2019-02-11T12:42:07.547Z,69.24
2019-02-11T12:44:35.306Z,71.20
2019-02-11T12:44:41.657Z,71.30
2019-02-11T12:45:35.658Z,70.79
2019-02-11T12:46:35.625Z,72.13
2019-02-11T12:47:35.627Z,72.44
2019-02-11T12:48:35.604Z,72.88
2019-02-11T12:49:35.612Z,73.30
2019-02-11T12:50:35.618Z,73.91
2019-02-11T12:51:35.583Z,73.68
2019-02-11T12:52:35.555Z,73.91
2019-02-11T12:53:35.543Z,73.71
2019-02-11T12:54:35.529Z,73.91
2019-02-11T12:55:35.517Z,73.91
2019-02-11T12:56:35.538Z,74.12
2019-02-11T12:57:35.503Z,74.33
2019-02-11T12:58:35.502Z,74.46
2019-02-11T12:59:35.485Z,74.12
2019-02-11T13:00:35.469Z,74.22
2019-02-11T13:01:35.485Z,74.02
2019-02-11T13:02:35.443Z,73.91
2019-02-11T13:03:35.441Z,73.60
2019-02-11T13:04:35.423Z,73.74
2019-02-11T13:05:45.137Z,73.50
2019-02-11T13:18:38.865Z,72.37
2019-02-11T13:19:35.095Z,72.27
2019-02-11T13:20:34.089Z,73.16
2019-02-11T13:21:34.095Z,73.40
2019-02-11T13:22:34.051Z,72.99
2019-02-11T13:23:34.059Z,72.27
2019-02-11T13:24:34.020Z,72.16
2019-02-11T13:25:34.022Z,72.16
2019-02-11T13:26:34.003Z,72.37
2019-02-11T13:27:33.990Z,71.95
2019-02-11T13:28:35.642Z,71.85
2019-02-11T13:29:33.966Z,71.85
2019-02-11T13:30:33.962Z,71.64
2019-02-11T13:31:33.973Z,71.92
2019-02-11T13:32:33.942Z,71.85
2019-02-11T13:33:33.924Z,71.75
2019-02-11T13:34:33.938Z,71.20
2019-02-11T13:35:33.909Z,71.41
2019-02-11T13:36:33.907Z,70.58
2019-02-11T13:37:33.885Z,70.89
2019-02-11T13:38:33.885Z,71.82
2019-02-11T13:39:35.647Z,71.72
2019-02-11T13:40:33.853Z,72.13
2019-02-11T13:53:31.053Z,72.16
2019-02-11T13:54:31.011Z,72.27
2019-02-11T13:55:32.002Z,72.99
2019-02-11T13:56:31.004Z,73.19
2019-02-11T13:57:30.966Z,73.30
2019-02-11T13:58:32.622Z,73.09
2019-02-11T13:59:30.942Z,73.81
2019-02-11T14:00:30.984Z,73.71
2019-02-11T14:01:30.920Z,74.26
2019-02-11T14:02:30.910Z,73.74
2019-02-11T14:03:30.897Z,74.43
2019-02-11T14:04:30.899Z,74.67
2019-02-11T14:05:30.905Z,74.77
2019-02-11T14:06:30.869Z,76.12
2019-02-11T14:08:23.643Z,76.32
2019-02-11T14:08:30.843Z,77.35
2019-02-11T14:09:30.844Z,76.84
2019-02-11T14:14:04.351Z,78.69
2019-02-11T14:15:04.099Z,79.00
2019-02-11T14:16:04.113Z,78.18
2019-02-11T14:17:04.077Z,79.14
2019-02-11T14:18:12.262Z,79.76
2019-02-11T14:19:05.050Z,79.86
2019-02-11T14:20:04.042Z,79.93
2019-02-11T14:21:04.032Z,80.14
2019-02-11T14:22:04.033Z,79.93
2019-02-11T14:23:04.012Z,79.93
2019-02-11T14:24:03.994Z,79.41
2019-02-11T14:25:03.986Z,79.21
2019-02-11T14:26:03.974Z,79.72
2019-02-11T14:27:03.986Z,79.52
2019-02-11T14:28:04.013Z,79.11
2019-02-11T15:01:57.287Z,77.87
2019-02-11T15:02:57.274Z,77.87
2019-02-11T15:03:57.249Z,77.87
2019-02-11T15:14:02.289Z,77.45
2019-02-11T15:14:35.248Z,77.87
2019-02-11T15:15:35.260Z,77.04
2019-02-11T15:19:45.245Z,77.56
2019-02-11T15:20:37.666Z,77.04
2019-02-11T15:21:37.637Z,75.49
2019-02-11T15:22:37.633Z,74.77
2019-02-11T15:23:37.608Z,74.05
2019-02-11T15:24:37.598Z,74.15
2019-02-11T15:25:37.608Z,73.77
2019-02-11T15:26:37.575Z,74.29
2019-02-11T15:27:38.270Z,73.16
2019-02-11T15:28:37.558Z,72.85
2019-02-11T15:29:37.545Z,73.26
2019-02-11T15:30:37.559Z,72.33
2019-02-11T15:31:37.525Z,73.26
2019-02-11T15:32:37.509Z,73.98
2019-02-11T15:33:37.500Z,73.98
2019-02-11T15:34:37.491Z,74.74
2019-02-11T15:35:37.506Z,73.98
2019-02-11T15:36:37.466Z,74.53
2019-02-11T15:37:37.471Z,74.81
2019-02-11T15:38:37.447Z,74.19
2019-02-11T15:39:37.435Z,74.29
2019-02-11T15:40:37.424Z,74.60
2019-02-11T15:41:37.435Z,73.68
2019-02-11T15:42:37.452Z,73.88
2019-02-11T15:43:37.390Z,73.57
2019-02-11T15:44:37.420Z,73.26
2019-02-11T15:45:37.366Z,74.08
2019-02-11T15:46:37.377Z,73.98
2019-02-11T15:47:37.359Z,73.98
2019-02-11T15:48:42.868Z,72.54
2019-02-11T15:49:38.368Z,71.81
2019-02-11T15:50:37.336Z,71.71
2019-02-11T15:51:37.354Z,72.06
2019-02-11T15:52:37.294Z,72.06
2019-02-11T15:53:37.292Z,72.16
2019-02-11T15:54:37.295Z,71.23
2019-02-11T15:55:37.294Z,72.36
2019-02-11T15:56:37.257Z,71.95
2019-02-11T15:57:37.262Z,72.88
2019-02-11T15:58:37.229Z,73.19
2019-02-11T15:59:37.301Z,74.53
2019-02-11T16:00:37.218Z,73.81
2019-02-11T16:01:37.196Z,74.43
2019-02-11T16:02:38.203Z,74.84
2019-02-11T16:03:37.364Z,74.74
2019-02-11T16:04:37.169Z,74.84
2019-02-11T16:05:37.153Z,74.74
2019-02-11T16:06:38.300Z,74.67
2019-02-11T16:07:37.154Z,74.36
2019-02-11T16:08:37.120Z,74.77
2019-02-11T16:09:37.103Z,75.91
2019-02-11T16:10:37.090Z,74.77
2019-02-11T16:11:37.131Z,75.81
2019-02-11T16:12:37.077Z,75.29
2019-02-11T16:13:37.074Z,75.39
2019-02-11T16:14:37.056Z,74.46
2019-02-11T16:15:37.042Z,74.98
2019-02-11T16:16:37.033Z,74.05
2019-02-11T16:17:37.058Z,74.77
2019-02-11T16:18:37.011Z,74.36
2019-02-11T16:19:36.996Z,74.36
2019-02-11T16:20:36.984Z,75.19
2019-02-11T16:21:36.975Z,75.19
2019-02-11T16:22:36.986Z,74.98
2019-02-11T16:23:36.949Z,75.29
2019-02-11T16:24:36.940Z,74.77
2019-02-11T16:25:36.926Z,75.74
2019-02-11T16:26:36.914Z,75.32
2019-02-11T16:27:36.927Z,75.49
2019-02-11T16:28:36.892Z,76.05
2019-02-11T16:29:36.884Z,76.15
2019-02-11T16:30:36.883Z,76.15
2019-02-11T16:31:36.863Z,76.29
2019-02-11T16:32:36.874Z,76.39
2019-02-11T16:33:36.837Z,76.36
2019-02-11T16:34:36.831Z,76.50
2019-02-11T16:35:36.941Z,75.95
2019-02-11T16:36:36.822Z,75.78
2019-02-11T16:37:36.833Z,76.18
2019-02-11T16:38:36.795Z,76.39
2019-02-11T16:39:36.779Z,76.50
2019-02-11T16:40:36.774Z,76.60
2019-02-11T16:41:36.754Z,76.60
2019-02-11T16:42:36.968Z,77.22
2019-02-11T16:43:36.772Z,76.91
2019-02-11T16:44:36.729Z,77.22
2019-02-11T16:45:36.713Z,77.22
2019-02-11T16:46:36.702Z,77.74
2019-02-11T16:47:36.691Z,77.94
2019-02-11T16:48:36.698Z,78.15
2019-02-11T16:49:36.677Z,77.84
2019-02-11T16:50:36.661Z,78.05
2019-02-11T16:51:36.646Z,78.15
2019-02-11T16:52:36.630Z,78.36
2019-02-11T16:53:36.670Z,79.02
2019-02-11T16:54:36.615Z,78.70
2019-02-11T16:55:36.598Z,78.91
2019-02-11T16:56:38.220Z,78.60
2019-02-11T16:57:36.585Z,79.12
2019-02-11T16:58:36.663Z,79.02
2019-02-11T16:59:36.560Z,78.91
2019-02-11T17:00:36.548Z,79.05
2019-02-11T17:01:36.582Z,79.12
2019-02-11T17:02:36.615Z,79.02
2019-02-11T17:03:36.533Z,78.91
2019-02-11T17:04:36.529Z,78.50
2019-02-11T17:05:36.495Z,79.36
2019-02-11T17:06:36.489Z,79.02
2019-02-11T17:07:41.941Z,78.39
2019-02-11T17:08:37.480Z,79.16
2019-02-11T17:09:36.448Z,80.88
2019-02-11T17:10:36.442Z,79.94
2019-02-11T17:11:36.425Z,79.43
2019-02-11T17:12:36.413Z,79.67
2019-02-11T17:13:36.425Z,79.05
2019-02-11T17:14:36.387Z,79.05
2019-02-11T17:15:36.377Z,79.12
2019-02-11T17:16:36.368Z,78.95
2019-02-11T17:17:36.354Z,78.91
2019-02-11T17:18:36.386Z,79.02
2019-02-11T17:19:36.333Z,78.70
2019-02-11T17:20:36.321Z,78.43
2019-02-11T17:21:36.306Z,78.70
2019-02-11T17:22:36.296Z,79.12
2019-02-11T17:23:36.288Z,78.43
2019-02-11T17:24:36.296Z,79.36
2019-02-11T17:25:36.262Z,78.12
2019-02-11T17:26:36.252Z,78.53
2019-02-11T17:27:36.278Z,78.33
2019-02-11T17:28:36.242Z,78.08
2019-02-11T17:29:36.248Z,78.29
2019-02-11T17:30:36.206Z,78.33
2019-02-11T17:31:36.195Z,78.33
2019-02-11T17:32:36.186Z,77.19
2019-02-11T17:33:36.174Z,77.91
2019-02-11T17:34:36.163Z,77.70
2019-02-11T17:35:36.178Z,77.91
2019-02-11T17:36:36.141Z,76.98
2019-02-11T17:37:36.129Z,78.02
2019-02-11T17:38:36.118Z,77.77
2019-02-11T17:39:36.110Z,78.12
2019-02-11T17:40:36.117Z,78.02
2019-02-11T17:46:56.450Z,77.29
2019-02-11T17:47:29.416Z,76.57
2019-02-11T17:50:45.311Z,75.29
2019-02-11T17:51:45.276Z,75.70
2019-02-11T17:52:45.267Z,75.91
2019-02-11T17:53:45.249Z,75.63
2019-02-11T17:54:45.238Z,76.26
2019-02-11T17:55:45.254Z,76.22
2019-02-11T17:56:45.217Z,74.88
2019-02-11T17:57:45.203Z,75.63
2019-02-11T17:58:45.194Z,75.74
2019-02-11T17:59:45.181Z,76.15
2019-02-11T18:00:45.191Z,75.74
2019-02-11T18:01:45.162Z,74.40
2019-02-11T18:02:45.153Z,75.84
2019-02-11T18:03:45.137Z,75.84
2019-02-11T18:09:48.595Z,75.12
2019-02-11T20:16:04.058Z,75.63
2019-02-11T20:16:37.153Z,76.15
2019-02-11T20:17:36.923Z,75.63
2019-02-11T20:18:36.842Z,75.02
2019-02-11T20:19:36.803Z,75.12
2019-02-11T20:20:36.786Z,75.12
2019-02-11T20:21:36.777Z,75.84
2019-02-11T20:22:36.765Z,75.84
2019-02-11T20:23:36.793Z,76.15
2019-02-11T20:24:36.776Z,76.09
2019-02-11T20:25:36.744Z,75.74
2019-02-11T20:26:36.750Z,76.15
2019-02-11T20:27:36.719Z,75.78
2019-02-11T20:28:36.708Z,76.19
2019-02-11T20:29:36.724Z,76.29
2019-02-11T20:30:36.686Z,76.29
2019-02-11T20:31:36.678Z,75.98
2019-02-11T20:32:36.672Z,76.19
2019-02-11T20:33:36.662Z,76.81
2019-02-11T20:34:36.660Z,76.71
